Time;durP1;ratioP1;P1;durP2;ratioP2;P2;SDS_P1;SDS_P2;PMS_P1;PMS_P2;Temp;Humidity;BMP_temperature;BMP_pressure;BME280_temperature;BME280_humidity;BME280_pressure;Samples;Min_cycle;Max_cycle;Signal;HPM_P1;HPM_P2
2021/05/20 00:01:40;;;;;;;0.70;0.57;;;;;;;13.90;88.62;98396.19;5005933;28;20220;-74
2021/05/20 00:04:06;;;;;;;0.70;0.53;;;;;;;13.95;89.19;98391.00;5002821;28;20207;-73
2021/05/20 00:06:33;;;;;;;1.53;0.70;;;;;;;13.95;89.22;98395.53;5009996;28;20607;-74
2021/05/20 00:09:00;;;;;;;0.93;0.80;;;;;;;14.07;88.08;98404.56;5002291;28;20212;-73
2021/05/20 00:11:27;;;;;;;1.13;0.70;;;;;;;13.75;90.00;98400.16;5001294;28;20218;-74
2021/05/20 00:13:54;;;;;;;1.40;0.80;;;;;;;13.96;88.46;98397.19;5001295;28;20296;-74
2021/05/20 00:16:20;;;;;;;1.33;0.73;;;;;;;14.14;87.18;98394.63;5008911;28;20228;-71
2021/05/20 00:18:48;;;;;;;3.13;0.80;;;;;;;14.22;86.98;98405.16;5004432;28;20223;-73
2021/05/20 00:21:15;;;;;;;1.17;0.60;;;;;;;14.17;87.23;98402.25;5006320;28;20232;-72
2021/05/20 00:23:42;;;;;;;0.90;0.73;;;;;;;14.18;87.66;98402.03;5013429;28;20751;-73
2021/05/20 00:26:12;;;;;;;1.97;1.00;;;;;;;14.11;88.05;98398.56;5005683;28;20228;-69
2021/05/20 00:28:39;;;;;;;0.70;0.60;;;;;;;13.97;88.89;98399.66;5003026;28;20208;-71
2021/05/20 00:31:06;;;;;;;1.73;0.83;;;;;;;13.83;90.37;98405.28;5006091;28;20694;-73
2021/05/20 00:33:32;;;;;;;1.30;0.60;;;;;;;14.03;89.13;98412.22;5007873;28;20215;-71
2021/05/20 00:36:00;;;;;;;2.13;0.70;;;;;;;13.60;91.71;98404.94;5005782;28;20224;-74
2021/05/20 00:38:28;;;;;;;0.60;0.60;;;;;;;14.00;90.15;98420.72;5007282;28;20731;-71
2021/05/20 00:40:59;;;;;;;1.30;0.70;;;;;;;13.71;92.00;98412.34;5004124;28;20297;-73
2021/05/20 00:43:26;;;;;;;2.10;1.03;;;;;;;13.40;94.12;98415.72;5010525;28;20208;-72
2021/05/20 00:45:52;;;;;;;1.13;0.73;;;;;;;13.63;93.38;98416.06;5010707;28;20305;-73
2021/05/20 00:48:19;;;;;;;1.53;0.80;;;;;;;13.59;92.87;98411.34;5009254;28;20207;-71
2021/05/20 00:50:47;;;;;;;1.27;0.77;;;;;;;13.55;93.56;98410.09;5013210;28;20668;-74
2021/05/20 00:53:16;;;;;;;1.00;0.70;;;;;;;13.77;92.36;98409.63;5007865;28;20217;-72
2021/05/20 00:55:43;;;;;;;2.00;0.80;;;;;;;13.83;92.29;98411.47;5006330;28;20302;-74
2021/05/20 00:58:11;;;;;;;0.97;0.60;;;;;;;14.03;90.88;98419.47;5006447;28;20231;-73
2021/05/20 01:00:38;;;;;;;1.70;0.80;;;;;;;14.05;90.52;98412.00;5011710;28;20688;-72
2021/05/20 01:03:05;;;;;;;2.23;0.70;;;;;;;13.92;91.59;98412.06;5010681;28;20580;-73
2021/05/20 01:05:32;;;;;;;0.67;0.67;;;;;;;13.50;95.36;98412.59;5008061;28;20254;-72
2021/05/20 01:07:59;;;;;;;1.23;0.70;;;;;;;14.05;94.65;98409.31;5009916;28;20199;-73
2021/05/20 01:10:27;;;;;;;1.20;0.70;;;;;;;14.06;95.77;98408.28;5006307;28;20676;-73
2021/05/20 01:12:53;;;;;;;1.70;0.60;;;;;;;13.87;96.76;98411.88;5009509;28;20292;-73
2021/05/20 01:15:22;;;;;;;1.33;0.70;;;;;;;13.60;100.00;98415.66;5009242;28;20231;-72
2021/05/20 01:17:50;;;;;;;1.67;0.83;;;;;;;13.96;96.89;98418.66;5008169;28;20227;-74
2021/05/20 01:20:20;;;;;;;0.70;0.60;;;;;;;13.72;97.45;98417.50;5009131;28;20608;-73
2021/05/20 01:22:47;;;;;;;1.27;0.70;;;;;;;13.76;98.76;98417.88;5003805;28;20204;-72
2021/05/20 01:25:14;;;;;;;3.67;0.97;;;;;;;13.53;99.77;98412.19;5008832;28;20719;-74
2021/05/20 01:27:43;;;;;;;0.70;0.60;;;;;;;13.36;100.00;98416.31;5005410;28;20216;-73
2021/05/20 01:30:12;;;;;;;0.70;0.70;;;;;;;13.35;100.00;98412.00;5007811;28;20209;-73
2021/05/20 01:32:39;;;;;;;1.50;0.80;;;;;;;13.32;100.00;98415.13;5008148;28;20215;-74
2021/05/20 01:35:07;;;;;;;1.13;0.80;;;;;;;13.31;100.00;98421.47;5011681;28;20231;-74
2021/05/20 01:37:35;;;;;;;3.70;0.80;;;;;;;13.47;100.00;98421.06;5012776;28;20554;-72
2021/05/20 01:40:02;;;;;;;1.10;0.70;;;;;;;13.46;100.00;98420.22;5005974;28;20231;-73
2021/05/20 01:42:29;;;;;;;1.63;0.90;;;;;;;13.26;100.00;98427.47;5007981;28;20212;-71
2021/05/20 01:44:55;;;;;;;1.00;0.60;;;;;;;13.04;100.00;98412.66;5001628;28;20230;-73
2021/05/20 01:47:22;;;;;;;1.40;0.63;;;;;;;13.30;100.00;98420.69;5005432;28;20606;-74
2021/05/20 01:49:51;;;;;;;0.70;0.60;;;;;;;12.93;100.00;98417.75;5002180;28;20661;-70
2021/05/20 01:52:18;;;;;;;1.27;0.80;;;;;;;12.88;100.00;98424.56;5008116;28;20259;-73
2021/05/20 01:54:46;;;;;;;0.90;0.60;;;;;;;13.07;100.00;98433.66;5008501;28;20234;-73
2021/05/20 01:57:13;;;;;;;2.47;0.90;;;;;;;13.10;100.00;98425.22;5010388;28;20202;-74
2021/05/20 01:59:40;;;;;;;1.70;0.80;;;;;;;13.31;100.00;98422.31;5006804;28;20226;-74
2021/05/20 02:02:07;;;;;;;1.00;0.80;;;;;;;13.23;100.00;98430.56;5010727;28;20214;-71
2021/05/20 02:04:33;;;;;;;0.80;0.80;;;;;;;13.30;100.00;98433.25;5008378;28;20222;-73
2021/05/20 02:07:00;;;;;;;1.20;0.80;;;;;;;13.23;100.00;98432.44;5008189;28;20206;-73
2021/05/20 02:09:28;;;;;;;1.17;0.70;;;;;;;13.09;100.00;98446.84;5005509;28;20298;-73
2021/05/20 02:11:55;;;;;;;2.37;0.80;;;;;;;13.06;100.00;98452.66;5008928;28;20211;-73
2021/05/20 02:14:22;;;;;;;1.00;0.90;;;;;;;13.12;100.00;98449.13;5011539;28;20278;-75
2021/05/20 02:16:49;;;;;;;2.80;0.70;;;;;;;12.93;100.00;98464.16;5005206;28;20203;-72
2021/05/20 02:19:16;;;;;;;3.43;1.00;;;;;;;12.71;100.00;98461.84;5005317;28;20238;-72
2021/05/20 02:21:42;;;;;;;4.73;0.90;;;;;;;12.73;100.00;98455.25;5010261;28;20207;-73
2021/05/20 02:24:10;;;;;;;1.33;1.10;;;;;;;13.03;100.00;98459.25;5000214;28;20679;-74
2021/05/20 02:26:37;;;;;;;2.03;0.90;;;;;;;12.91;100.00;98455.47;5005230;28;20230;-74
2021/05/20 02:29:04;;;;;;;2.20;1.00;;;;;;;12.91;100.00;98446.63;5006951;28;20199;-74
2021/05/20 02:31:31;;;;;;;1.57;0.90;;;;;;;13.01;100.00;98458.59;5009876;28;20219;-74
2021/05/20 02:33:58;;;;;;;1.73;0.90;;;;;;;12.82;100.00;98462.88;5009847;28;20237;-71
2021/05/20 02:36:25;;;;;;;2.47;1.10;;;;;;;12.97;100.00;98461.91;5008017;28;20301;-73
2021/05/20 02:38:52;;;;;;;4.80;1.23;;;;;;;13.05;100.00;98456.34;5005269;28;20231;-72
2021/05/20 02:41:19;;;;;;;2.33;1.23;;;;;;;12.77;100.00;98456.47;5008025;28;20665;-74
2021/05/20 02:43:46;;;;;;;3.10;1.43;;;;;;;13.10;100.00;98461.91;5004614;28;20290;-71
2021/05/20 02:46:13;;;;;;;1.63;1.10;;;;;;;13.08;100.00;98463.97;5006916;28;20223;-72
2021/05/20 02:48:40;;;;;;;0.97;0.70;;;;;;;12.65;100.00;98452.75;5002996;28;20207;-74
2021/05/20 02:51:07;;;;;;;1.00;0.90;;;;;;;13.06;100.00;98453.44;5009690;28;20207;-73
2021/05/20 02:53:34;;;;;;;2.03;0.80;;;;;;;12.93;100.00;98448.06;5006954;28;20211;-74
2021/05/20 02:56:00;;;;;;;2.80;1.00;;;;;;;13.16;100.00;98455.75;5010672;28;20234;-74
2021/05/20 02:58:27;;;;;;;1.87;0.80;;;;;;;13.08;100.00;98453.25;5009347;28;20588;-74
2021/05/20 03:00:54;;;;;;;1.73;0.93;;;;;;;13.16;100.00;98453.88;5007183;28;20600;-72
2021/05/20 03:03:22;;;;;;;26.47;4.30;;;;;;;13.28;100.00;98452.19;5000394;28;20258;-73
2021/05/20 03:05:49;;;;;;;0.83;0.80;;;;;;;13.32;100.00;98455.31;5005363;28;20734;-74
2021/05/20 03:08:16;;;;;;;5.60;1.07;;;;;;;12.93;100.00;98452.59;5009549;28;20615;-75
2021/05/20 03:10:42;;;;;;;6.07;1.10;;;;;;;13.28;100.00;98451.41;5008631;28;20657;-74
2021/05/20 03:13:09;;;;;;;1.90;1.10;;;;;;;13.06;100.00;98469.53;5002236;28;20209;-73
2021/05/20 03:15:36;;;;;;;2.80;0.90;;;;;;;12.88;100.00;98458.56;5008665;28;20234;-73
2021/05/20 03:18:03;;;;;;;1.33;0.77;;;;;;;13.04;100.00;98466.25;4998726;28;20257;-73
2021/05/20 03:20:31;;;;;;;1.63;0.83;;;;;;;13.12;100.00;98454.50;5008986;28;20233;-71
2021/05/20 03:22:58;;;;;;;2.80;0.73;;;;;;;12.87;100.00;98461.44;5005646;28;20207;-74
2021/05/20 03:25:25;;;;;;;1.57;0.90;;;;;;;12.94;100.00;98455.88;5006854;28;20236;-72
2021/05/20 03:27:51;;;;;;;1.40;0.90;;;;;;;13.03;100.00;98458.41;5006068;28;20207;-70
2021/05/20 03:30:19;;;;;;;0.73;0.60;;;;;;;12.70;100.00;98469.03;5007861;28;20214;-71
2021/05/20 03:32:46;;;;;;;2.13;0.87;;;;;;;13.01;100.00;98455.13;5002942;28;20259;-71
2021/05/20 03:35:13;;;;;;;2.37;0.70;;;;;;;12.68;100.00;98466.56;5001427;28;20219;-72
2021/05/20 03:37:40;;;;;;;1.53;0.70;;;;;;;12.84;100.00;98460.81;5006947;28;20636;-72
2021/05/20 03:40:08;;;;;;;1.60;0.87;;;;;;;13.32;100.00;98456.13;4999317;28;20725;-75
2021/05/20 03:42:35;;;;;;;0.80;0.70;;;;;;;13.16;100.00;98464.59;5004458;28;20213;-72
2021/05/20 03:45:02;;;;;;;1.90;0.90;;;;;;;13.60;100.00;98462.09;5005549;28;20281;-73
2021/05/20 03:47:29;;;;;;;1.87;0.80;;;;;;;13.26;100.00;98464.16;5004748;28;20222;-73
2021/05/20 03:49:56;;;;;;;1.80;0.70;;;;;;;12.96;100.00;98461.06;5008234;28;20210;-75
2021/05/20 03:52:23;;;;;;;1.53;0.73;;;;;;;13.13;100.00;98469.53;5003324;28;20203;-75
2021/05/20 03:54:50;;;;;;;1.57;0.80;;;;;;;13.35;100.00;98470.97;5003262;28;20286;-75
2021/05/20 03:57:17;;;;;;;1.07;0.77;;;;;;;13.39;100.00;98472.22;5001211;28;20694;-75
2021/05/20 03:59:44;;;;;;;1.63;0.70;;;;;;;13.13;100.00;98474.91;5007075;28;20234;-73
2021/05/20 04:02:11;;;;;;;0.83;0.70;;;;;;;13.31;100.00;98475.94;5004896;28;20204;-75
2021/05/20 04:04:38;;;;;;;1.50;0.87;;;;;;;13.25;100.00;98470.56;5006649;28;20284;-72
2021/05/20 04:07:04;;;;;;;1.83;0.80;;;;;;;13.37;100.00;98475.09;5007015;28;20210;-70
2021/05/20 04:09:31;;;;;;;1.33;0.60;;;;;;;13.34;100.00;98477.38;5000982;28;20203;-72
2021/05/20 04:11:59;;;;;;;0.63;0.60;;;;;;;13.56;100.00;98481.47;4996302;28;20211;-73
2021/05/20 04:14:26;;;;;;;1.30;0.83;;;;;;;13.45;100.00;98476.75;5008010;28;20214;-73
2021/05/20 04:16:53;;;;;;;1.40;0.80;;;;;;;13.65;100.00;98481.06;5008026;28;20200;-73
2021/05/20 04:19:20;;;;;;;2.20;0.90;;;;;;;13.71;100.00;98484.75;4995663;28;20690;-74
2021/05/20 04:21:46;;;;;;;1.13;0.83;;;;;;;13.66;100.00;98482.72;5007330;28;20692;-74
2021/05/20 04:24:13;;;;;;;2.00;0.60;;;;;;;13.52;100.00;98475.69;5002403;28;20262;-72
2021/05/20 04:26:40;;;;;;;0.50;0.50;;;;;;;13.72;100.00;98478.38;5006068;28;20235;-74
2021/05/20 04:29:09;;;;;;;0.77;0.57;;;;;;;13.62;100.00;98478.78;5010716;28;20294;-73
2021/05/20 04:31:36;;;;;;;0.90;0.70;;;;;;;13.44;100.00;98472.41;5009396;28;20729;-73
2021/05/20 04:34:03;;;;;;;3.27;0.90;;;;;;;13.64;100.00;98462.50;5013552;28;20636;-74
2021/05/20 04:36:30;;;;;;;2.67;0.40;;;;;;;13.68;100.00;98463.72;5011180;28;20390;-72
2021/05/20 04:38:57;;;;;;;1.27;0.73;;;;;;;14.05;100.00;98465.69;5012072;28;20234;-74
2021/05/20 04:41:24;;;;;;;1.40;0.60;;;;;;;14.01;100.00;98465.28;5011422;28;20648;-75
2021/05/20 04:43:51;;;;;;;1.50;0.77;;;;;;;14.15;100.00;98464.22;5005988;28;20214;-74
2021/05/20 04:46:18;;;;;;;3.00;0.80;;;;;;;14.43;98.60;98469.31;5011985;28;20223;-73
2021/05/20 04:48:45;;;;;;;0.60;0.60;;;;;;;14.64;97.10;98479.72;5005806;28;20208;-75
2021/05/20 04:51:12;;;;;;;0.63;0.50;;;;;;;14.77;94.18;98485.00;5011982;28;20609;-74
2021/05/20 04:53:39;;;;;;;1.43;0.97;;;;;;;14.94;92.72;98473.53;5010019;28;20212;-73
2021/05/20 04:56:06;;;;;;;0.77;0.50;;;;;;;15.21;90.23;98485.75;5010042;28;20231;-75
2021/05/20 04:58:33;;;;;;;1.37;0.70;;;;;;;15.11;90.83;98484.59;5006002;28;20227;-74
2021/05/20 05:00:59;;;;;;;0.80;0.50;;;;;;;15.16;89.56;98488.28;5006552;28;20231;-75
2021/05/20 05:03:27;;;;;;;1.13;0.50;;;;;;;15.15;89.95;98496.56;5006731;28;20762;-75
2021/05/20 05:05:54;;;;;;;2.30;0.63;;;;;;;15.10;89.78;98493.69;5003159;28;20253;-73
2021/05/20 05:08:21;;;;;;;2.90;1.03;;;;;;;14.98;90.72;98496.25;5011109;28;20282;-72
2021/05/20 05:10:48;;;;;;;0.50;0.50;;;;;;;14.78;91.74;98506.28;5009928;28;20206;-75
2021/05/20 05:13:19;;;;;;;1.00;0.57;;;;;;;15.10;89.87;98507.94;5012829;28;20202;-74
2021/05/20 05:15:46;;;;;;;0.53;0.50;;;;;;;15.05;90.21;98517.72;5011908;28;20233;-76
2021/05/20 05:18:12;;;;;;;1.77;0.70;;;;;;;14.69;93.90;98512.94;5011633;28;20229;-71
2021/05/20 05:20:40;;;;;;;4.70;0.73;;;;;;;15.17;91.23;98524.03;5007838;28;20231;-76
2021/05/20 05:23:07;;;;;;;0.77;0.57;;;;;;;15.48;88.23;98526.72;5016445;28;20234;-84
2021/05/20 05:25:37;;;;;;;1.03;0.70;;;;;;;14.98;92.74;98525.81;5015113;28;20305;-78
2021/05/20 05:28:04;;;;;;;4.20;0.70;;;;;;;15.21;90.86;98525.25;4999247;28;20243;-78
2021/05/20 05:30:31;;;;;;;1.13;0.80;;;;;;;15.58;88.41;98538.66;5007921;28;20214;-74
2021/05/20 05:32:58;;;;;;;3.67;0.90;;;;;;;15.12;90.01;98543.53;5004544;28;20359;-75
2021/05/20 05:35:25;;;;;;;0.73;0.60;;;;;;;15.50;88.39;98536.22;5016732;28;20315;-78
2021/05/20 05:37:52;;;;;;;2.90;0.97;;;;;;;15.21;92.07;98539.53;5016932;28;20218;-77
2021/05/20 05:40:19;;;;;;;1.37;0.90;;;;;;;14.63;95.86;98539.88;5008189;28;20320;-71
2021/05/20 05:42:46;;;;;;;1.27;0.80;;;;;;;14.67;95.22;98541.06;5008938;28;20203;-71
2021/05/20 05:45:13;;;;;;;3.23;0.70;;;;;;;15.30;90.84;98545.47;5002989;28;20220;-72
2021/05/20 05:47:40;;;;;;;2.27;1.00;;;;;;;15.47;90.13;98552.81;5002057;28;20205;-73
2021/05/20 05:50:10;;;;;;;1.20;0.70;;;;;;;15.28;91.12;98552.91;5012955;28;20650;-78
2021/05/20 05:52:36;;;;;;;1.43;0.47;;;;;;;15.76;87.46;98562.09;5009661;28;20201;-77
2021/05/20 05:55:05;;;;;;;0.80;0.60;;;;;;;16.16;84.92;98566.88;5002566;28;20241;-77
2021/05/20 05:57:32;;;;;;;0.70;0.60;;;;;;;16.66;81.47;98568.44;5003988;28;20210;-76
2021/05/20 05:59:59;;;;;;;0.83;0.60;;;;;;;17.32;77.06;98571.09;5010550;28;20227;-75
2021/05/20 06:02:26;;;;;;;1.43;0.70;;;;;;;17.01;77.88;98571.31;5010225;28;20221;-78
2021/05/20 06:04:53;;;;;;;1.23;0.70;;;;;;;16.51;79.34;98570.69;5008108;28;20233;-71
2021/05/20 06:07:20;;;;;;;5.50;0.90;;;;;;;16.75;77.60;98582.44;5006153;28;20246;-71
2021/05/20 06:09:47;;;;;;;1.73;0.60;;;;;;;15.69;83.01;98572.91;5002652;28;20205;-69
2021/05/20 06:12:15;;;;;;;0.63;0.60;;;;;;;15.85;81.81;98576.94;5003401;28;20216;-71
2021/05/20 06:14:42;;;;;;;1.23;0.60;;;;;;;16.26;79.96;98582.56;5013385;28;20230;-72
2021/05/20 06:17:09;;;;;;;1.00;0.80;;;;;;;15.98;80.83;98588.41;4997783;28;20255;-74
2021/05/20 06:19:36;;;;;;;1.07;0.63;;;;;;;16.28;80.03;98581.28;5011787;28;20756;-72
2021/05/20 06:22:03;;;;;;;0.60;0.50;;;;;;;15.67;84.72;98569.63;5002466;28;20264;-71
2021/05/20 06:24:30;;;;;;;1.23;0.57;;;;;;;15.46;83.54;98579.94;5012752;28;20238;-72
2021/05/20 06:26:57;;;;;;;0.70;0.57;;;;;;;15.90;83.87;98571.72;5011363;28;20234;-71
2021/05/20 06:29:24;;;;;;;0.77;0.60;;;;;;;16.59;81.11;98578.47;5005228;28;20206;-74
2021/05/20 06:31:51;;;;;;;1.37;0.70;;;;;;;16.21;79.80;98585.09;5005990;28;20205;-71
2021/05/20 06:34:18;;;;;;;2.60;0.80;;;;;;;16.44;79.11;98586.13;5010740;28;20217;-75
2021/05/20 06:36:46;;;;;;;1.47;0.90;;;;;;;16.57;81.14;98585.16;5010716;28;20287;-71
2021/05/20 06:39:13;;;;;;;1.13;1.03;;;;;;;16.20;79.23;98592.34;5013518;28;20716;-74
2021/05/20 06:41:39;;;;;;;2.33;0.70;;;;;;;16.50;79.23;98593.28;5009906;28;20211;-74
2021/05/20 06:44:07;;;;;;;1.27;0.80;;;;;;;16.96;77.55;98590.88;4996521;28;20210;-72
2021/05/20 06:46:34;;;;;;;1.10;0.70;;;;;;;17.34;74.38;98594.09;5007916;28;20673;-70
2021/05/20 06:49:01;;;;;;;2.00;0.83;;;;;;;17.16;75.21;98593.28;5007307;28;20283;-73
2021/05/20 06:51:29;;;;;;;2.73;0.93;;;;;;;17.71;71.01;98605.59;5010050;28;20293;-71
2021/05/20 06:53:56;;;;;;;2.50;1.00;;;;;;;16.76;74.63;98602.97;5012151;28;20312;-70
2021/05/20 06:56:25;;;;;;;0.93;0.80;;;;;;;16.74;77.44;98594.25;5009789;28;20242;-72
2021/05/20 07:01:44;;;;;;;2.70;0.80;;;;;;;17.61;72.22;98595.38;4998415;28;20219;-70
2021/05/20 07:04:11;;;;;;;4.70;0.90;;;;;;;18.50;67.95;98606.72;5000373;28;20191;-73
2021/05/20 07:06:38;;;;;;;3.37;0.90;;;;;;;17.87;67.80;98613.03;5008455;28;20231;-73
2021/05/20 07:09:05;;;;;;;1.00;0.90;;;;;;;17.77;68.60;98610.06;5002650;28;20698;-71
2021/05/20 07:11:32;;;;;;;1.03;0.97;;;;;;;17.90;71.57;98596.38;5007141;28;20214;-72
2021/05/20 07:13:59;;;;;;;2.30;0.80;;;;;;;17.66;75.15;98589.28;5012376;28;20202;-72
2021/05/20 07:16:26;;;;;;;1.57;1.00;;;;;;;17.23;75.21;98599.44;5001116;28;20236;-74
2021/05/20 07:18:54;;;;;;;3.63;1.00;;;;;;;18.04;70.19;98601.31;5008253;28;20272;-72
2021/05/20 07:21:21;;;;;;;0.80;0.70;;;;;;;18.07;68.99;98598.16;5011119;28;20260;-74
2021/05/20 07:23:47;;;;;;;2.40;0.80;;;;;;;17.91;68.75;98606.09;5006063;28;20556;-76
2021/05/20 07:26:14;;;;;;;0.93;0.80;;;;;;;18.32;67.78;98601.47;5000966;28;20313;-73
2021/05/20 07:28:41;;;;;;;1.30;0.80;;;;;;;17.18;72.59;98599.31;5000387;28;20738;-73
2021/05/20 07:31:08;;;;;;;1.63;0.60;;;;;;;18.42;67.15;98600.88;5005536;28;20292;-73
2021/05/20 07:33:37;;;;;;;2.63;0.63;;;;;;;17.73;66.82;98614.31;5011770;28;20209;-70
2021/05/20 07:36:05;;;;;;;1.67;0.80;;;;;;;17.09;69.40;98615.00;5005948;28;20227;-75
2021/05/20 07:38:33;;;;;;;1.33;0.70;;;;;;;17.58;67.39;98609.31;5009392;28;20199;-73
2021/05/20 07:41:00;;;;;;;0.93;0.70;;;;;;;17.86;65.11;98616.78;5001589;28;20227;-73
2021/05/20 07:43:26;;;;;;;2.83;0.80;;;;;;;17.98;65.90;98607.63;5009982;28;20212;-74
2021/05/20 07:45:53;;;;;;;1.17;0.83;;;;;;;17.46;66.23;98610.34;4997477;28;20231;-76
2021/05/20 07:48:20;;;;;;;1.27;0.80;;;;;;;18.11;65.23;98620.94;5007646;28;20226;-76
2021/05/20 07:50:47;;;;;;;0.83;0.70;;;;;;;18.33;61.82;98623.91;5003417;28;20208;-74
2021/05/20 07:53:14;;;;;;;0.50;0.50;;;;;;;18.87;60.11;98623.50;5008768;28;20208;-75
2021/05/20 07:55:41;;;;;;;2.10;0.60;;;;;;;18.15;60.38;98618.59;5011925;28;20226;-81
2021/05/20 07:58:08;;;;;;;1.50;0.80;;;;;;;18.53;60.10;98622.50;5008742;28;20199;-75
2021/05/20 08:00:35;;;;;;;2.57;0.80;;;;;;;18.48;60.60;98621.53;5005640;28;20234;-72
2021/05/20 08:03:03;;;;;;;0.90;0.60;;;;;;;18.46;59.58;98612.84;5010601;28;20258;-74
2021/05/20 08:05:34;;;;;;;3.20;0.60;;;;;;;17.70;61.86;98630.97;5004691;28;20305;-74
2021/05/20 08:08:08;;;;;;;0.77;0.63;;;;;;;17.44;63.36;98613.28;5009585;28;20204;-74
2021/05/20 08:10:48;;;;;;;1.00;0.63;;;;;;;18.53;60.37;98618.94;5005215;28;20206;-73
2021/05/20 08:13:16;;;;;;;0.60;0.53;;;;;;;18.67;58.55;98621.19;5001490;28;20192;-73
2021/05/20 08:15:43;;;;;;;0.77;0.60;;;;;;;17.56;65.32;98622.22;5003096;28;20224;-75
2021/05/20 08:18:10;;;;;;;2.60;0.67;;;;;;;17.87;61.31;98627.34;5001292;28;20322;-75
2021/05/20 08:20:36;;;;;;;0.97;0.80;;;;;;;18.29;58.50;98631.63;5009238;28;20237;-74
2021/05/20 08:23:03;;;;;;;2.67;0.70;;;;;;;18.06;59.47;98626.22;5001105;28;20617;-74
2021/05/20 08:25:30;;;;;;;0.97;0.60;;;;;;;17.65;60.70;98618.16;5015855;28;20226;-73
2021/05/20 08:27:58;;;;;;;1.23;0.60;;;;;;;17.83;62.42;98617.25;5014333;28;20191;-74
2021/05/20 08:30:25;;;;;;;0.80;0.60;;;;;;;17.90;59.36;98617.97;5019757;28;20205;-74
2021/05/20 08:32:52;;;;;;;0.83;0.50;;;;;;;18.00;60.23;98626.31;5014549;28;20675;-74
2021/05/20 08:35:19;;;;;;;0.60;0.60;;;;;;;18.09;59.00;98616.81;5013399;28;20218;-75
2021/05/20 08:37:46;;;;;;;0.53;0.53;;;;;;;17.72;59.81;98610.78;5010725;28;20198;-75
2021/05/20 08:40:14;;;;;;;1.43;0.83;;;;;;;17.86;59.93;98620.31;5004066;28;20223;-74
2021/05/20 08:42:42;;;;;;;1.07;0.60;;;;;;;17.20;64.14;98616.91;5006565;28;20291;-74
2021/05/20 08:45:12;;;;;;;1.17;0.60;;;;;;;17.88;62.21;98610.09;5015063;28;20310;-75
2021/05/20 08:47:39;;;;;;;2.07;0.60;;;;;;;18.32;61.74;98608.72;5000146;28;20211;-74
2021/05/20 08:50:07;;;;;;;0.87;0.53;;;;;;;18.12;59.53;98611.78;5008481;28;20555;-73
2021/05/20 08:52:34;;;;;;;1.53;1.07;;;;;;;18.66;58.24;98616.84;5010261;28;20218;-74
2021/05/20 08:55:00;;;;;;;0.90;0.63;;;;;;;18.63;56.28;98619.19;5013146;28;20231;-73
2021/05/20 08:57:27;;;;;;;0.60;0.50;;;;;;;19.08;54.68;98610.16;5007364;28;20207;-72
2021/05/20 08:59:54;;;;;;;1.03;0.50;;;;;;;18.77;53.44;98616.00;5008615;28;20231;-74
2021/05/20 09:02:26;;;;;;;1.43;0.60;;;;;;;19.47;52.63;98611.22;5005563;28;20213;-74
2021/05/20 09:05:07;;;;;;;0.47;0.43;;;;;;;19.64;51.16;98620.19;5016218;28;20600;-74
2021/05/20 09:07:36;;;;;;;1.80;0.50;;;;;;;20.01;51.75;98624.09;5006851;28;20213;-74
2021/05/20 09:10:14;;;;;;;0.47;0.40;;;;;;;20.24;48.57;98629.38;5009795;28;20196;-74
2021/05/20 09:12:41;;;;;;;0.60;0.40;;;;;;;20.79;47.25;98635.63;5011260;28;20747;-74
2021/05/20 09:15:23;;;;;;;2.27;0.50;;;;;;;20.55;46.65;98640.44;5009212;28;20227;-75
2021/05/20 09:17:52;;;;;;;1.33;0.40;;;;;;;19.05;53.82;98624.16;5001690;28;20215;-74
2021/05/20 09:20:19;;;;;;;1.73;0.70;;;;;;;19.03;53.81;98625.44;5003617;28;20220;-74
2021/05/20 09:22:47;;;;;;;0.67;0.47;;;;;;;19.25;53.57;98626.50;5007807;28;20203;-75
2021/05/20 09:25:14;;;;;;;1.50;0.60;;;;;;;18.79;53.49;98627.38;5005896;28;20235;-74
2021/05/20 09:27:42;;;;;;;0.37;0.37;;;;;;;17.45;56.25;98635.69;5010240;28;20212;-73
2021/05/20 09:30:19;;;;;;;1.23;0.60;;;;;;;18.57;53.60;98629.06;5012975;28;20683;-75
2021/05/20 09:32:49;;;;;;;1.00;0.50;;;;;;;18.68;53.21;98627.41;5010812;28;20234;-76
2021/05/20 09:35:17;;;;;;;1.30;0.50;;;;;;;18.50;54.23;98633.75;5011599;28;20254;-76
2021/05/20 09:37:53;;;;;;;1.70;0.70;;;;;;;18.89;52.06;98641.13;5009657;28;20207;-75
2021/05/20 09:40:22;;;;;;;3.80;0.70;;;;;;;18.93;51.79;98641.47;5012331;28;20233;-75
2021/05/20 09:42:50;;;;;;;0.63;0.50;;;;;;;19.26;51.12;98633.53;5002836;28;20575;-72
2021/05/20 09:45:20;;;;;;;1.37;0.60;;;;;;;18.48;55.88;98624.25;5001672;28;20219;-74
2021/05/20 09:47:47;;;;;;;4.80;0.60;;;;;;;18.56;54.67;98623.91;5010249;28;20287;-73
2021/05/20 09:50:17;;;;;;;1.10;0.70;;;;;;;19.15;52.38;98623.56;5007493;28;20203;-74
2021/05/20 09:52:43;;;;;;;1.40;0.57;;;;;;;18.47;53.91;98614.50;5009354;28;20210;-74
2021/05/20 09:55:25;;;;;;;1.97;0.70;;;;;;;19.00;53.21;98623.25;5006727;28;20308;-75
2021/05/20 09:57:53;;;;;;;0.50;0.50;;;;;;;19.05;53.83;98620.66;5007778;28;20274;-74
2021/05/20 10:00:22;;;;;;;1.80;0.60;;;;;;;18.46;55.19;98612.84;5007953;28;20762;-74
2021/05/20 10:03:00;;;;;;;0.70;0.70;;;;;;;18.58;53.75;98616.38;5008814;28;20293;-74
2021/05/20 10:05:32;;;;;;;0.93;0.83;;;;;;;19.30;52.36;98611.16;5007323;28;20288;-74
2021/05/20 10:08:01;;;;;;;0.80;0.50;;;;;;;19.63;50.10;98624.78;5010587;28;20290;-75
2021/05/20 10:10:28;;;;;;;0.63;0.40;;;;;;;20.06;46.29;98627.69;5006463;28;20203;-72
2021/05/20 10:12:55;;;;;;;1.13;0.50;;;;;;;20.45;44.37;98624.00;5004546;28;20272;-75
2021/05/20 10:15:24;;;;;;;4.43;0.40;;;;;;;19.72;46.28;98630.63;5010720;28;20261;-75
2021/05/20 10:17:51;;;;;;;0.50;0.50;;;;;;;19.71;45.50;98629.78;5005181;28;20209;-77
2021/05/20 10:20:20;;;;;;;1.10;0.60;;;;;;;19.02;47.14;98624.66;5011016;28;20224;-73
2021/05/20 10:22:48;;;;;;;0.50;0.50;;;;;;;18.37;49.33;98611.56;5006752;28;20210;-73
2021/05/20 10:25:18;;;;;;;1.43;0.50;;;;;;;18.96;47.62;98606.69;4997329;28;20326;-73
2021/05/20 10:27:45;;;;;;;1.33;0.47;;;;;;;19.10;45.10;98618.84;5007941;28;20333;-73
2021/05/20 10:30:15;;;;;;;0.40;0.40;;;;;;;19.01;43.94;98619.47;5006206;28;20267;-74
2021/05/20 10:32:43;;;;;;;0.30;0.30;;;;;;;19.68;42.16;98619.47;5008229;28;20286;-73
2021/05/20 10:35:12;;;;;;;1.30;0.40;;;;;;;20.20;40.71;98612.78;4996904;28;20247;-81
2021/05/20 10:37:40;;;;;;;1.13;0.30;;;;;;;20.32;41.15;98618.91;5004198;28;20209;-78
2021/05/20 10:40:30;;;;;;;1.20;0.50;;;;;;;20.05;42.69;98600.84;5003231;28;20224;-74
2021/05/20 10:43:11;;;;;;;0.53;0.50;;;;;;;19.05;44.86;98602.50;4998845;28;20201;-72
2021/05/20 10:45:39;;;;;;;2.07;1.10;;;;;;;19.49;44.59;98600.94;5004015;28;20250;-75
2021/05/20 10:48:23;;;;;;;30.17;10.47;;;;;;;20.55;40.93;98613.31;5004220;28;20206;-74
2021/05/20 10:51:17;;;;;;;11.53;5.13;;;;;;;21.33;39.63;98610.28;5007415;28;20197;-73
2021/05/20 10:53:55;;;;;;;2.33;0.83;;;;;;;21.98;38.22;98598.16;5008809;28;20202;-73
2021/05/20 10:56:54;;;;;;;0.83;0.50;;;;;;;21.13;39.45;98616.28;5005276;28;20247;-72
2021/05/20 10:59:51;;;;;;;1.53;0.70;;;;;;;20.61;39.55;98604.19;5008731;28;20220;-74
2021/05/20 11:02:52;;;;;;;3.50;1.03;;;;;;;20.73;39.60;98598.66;5008854;28;20205;-73
2021/05/20 11:05:55;;;;;;;0.53;0.50;;;;;;;19.82;40.39;98604.53;5005843;28;20265;-74
2021/05/20 11:08:53;;;;;;;0.67;0.50;;;;;;;20.79;38.13;98594.91;5005325;28;20674;-74
2021/05/20 11:11:59;;;;;;;0.40;0.40;;;;;;;21.01;37.24;98601.19;5007572;28;20212;-74
2021/05/20 11:14:43;;;;;;;0.93;0.47;;;;;;;20.77;40.02;98587.03;5007894;28;20212;-74
2021/05/20 11:17:38;;;;;;;0.40;0.40;;;;;;;20.00;41.51;98581.78;5007932;28;20212;-74
2021/05/20 11:20:44;;;;;;;0.37;0.30;;;;;;;19.74;40.01;98572.44;5013391;28;20224;-76
2021/05/20 11:23:29;;;;;;;0.40;0.40;;;;;;;20.56;38.96;98585.13;5013743;28;20566;-75
2021/05/20 11:26:16;;;;;;;0.40;0.40;;;;;;;21.37;36.62;98592.38;5008051;28;20236;-76
2021/05/20 11:28:55;;;;;;;0.40;0.40;;;;;;;21.86;35.78;98578.50;5006204;28;20214;-75
2021/05/20 11:31:25;;;;;;;0.60;0.40;;;;;;;21.37;35.84;98590.50;5008839;28;20203;-75
2021/05/20 11:36:51;;;;;;;0.83;0.50;;;;;;;20.45;39.81;98569.78;5005341;28;20206;-74
2021/05/20 11:39:19;;;;;;;3.00;0.50;;;;;;;20.79;39.56;98568.63;5007853;28;20228;-76
2021/05/20 11:41:47;;;;;;;2.40;0.40;;;;;;;21.17;37.67;98575.91;5009760;28;20209;-75
2021/05/20 11:44:16;;;;;;;1.27;0.50;;;;;;;21.77;36.14;98571.06;5004236;28;20279;-75
2021/05/20 11:46:46;;;;;;;2.70;0.70;;;;;;;21.62;35.48;98582.59;5004269;28;20234;-73